Aérodrome :
LOGIN :

S'inscrire | Disclaimer

   EN    FR    IT 

 










Légende :    VFR   VFR Marginal   IFR   IFR Intensif   IFR Très Intensif
Visi : 
Plafond : 
>= 8 km
>= 3000ft
5 à 8 km
1000 à 3000 ft
1500m à 5 km
500 à 1000 ft
800 à 1500m
200 à 500 ft
< 800m
< 200 ft
Symboles :   Orages  Brouillard  Fortes neiges  Fortes précipitations  Vent > 20 kt
SIGMETs :   Divers  Orages  Givrage  Turbulence  Onde Orograph.  Cendres Volcan.







- Altitude de l'aérodrome : 288 ft
- Code IATA : BZZ


EGVN - RAF Brize Norton

DERNIER METAR :
  • 272350Z 28004KT CAVOK 06/04 Q1017 TEMPO SCT020

METARs EXPIRÉS :
  • 272250Z 28004KT 9999 SCT045 SCT080 07/04 Q1017 TEMPO SCT020
  • 272150Z 27002KT 9999 SCT042 BKN090 07/04 Q1017 NOSIG

TAF TAF EGVN
Valide du 28 à 00h jusqu'au 29 à 00h UTC


272224Z 2800/2824 31005KT 9999 SCT030
TEMPO 2800/2808 7000 -RA BKN010
PROB30
TEMPO 2817/2822 6000 -SHRA SCT024
Pas de NOTAMs connus pour ce terrain.



MET'MAP, la Météo Aéronautique d'un coup d'oeil ! - Copyright ORBIFLY Décembre 2007 - Disclaimer

ORBIFLY MET'MAP TEAM :

Programmation & Développement : Alexandra Zaïnal
Conception & Développement : Baudouin d'Aumeries
Co-Programmation & Développement : Marc-Olivier Méhu
Soutien technique & logistique : Manuel Goepfert

Contact : metmap@orbifly.com




SOURCES & CREDITS :

   NOAA